Covington, Washington
Current Conditions -  °F | °C
As of 5:53 AM on Saturday 22 Nov 2014 (Local Time) from KSEA Reporting Station
Overcast Overcast  
Wind Chill: 39°   Ceiling: 7000
Heat Index: 46°   Visibility: 10mi
Dew Point: 40°   Wind: 17mph
Humidity: 79%   Direction: 190°S
Pressure: 29.68"   Gusts: 23mph
Location:  47.3596°N, 122.107°W
Report Text: KSEA 221353Z 19015G20KT 10SM FEW020 BKN070 OVC085 08/04 A2968 RMK AO2 SLP057 T00780044
Loading
Personal Weather Stations






























Interactive Weather Map New forecast layout! Learn more

10-Day Weather Forecast

Advertisements
Track Severe Weather on mobile